sensor_id;sensor_type;location;lat;lon;timestamp;temperature;humidity
7014;DHT22;3547;50.774;12.918;2023-08-21T00:00:41;21.10;1.00
7014;DHT22;3547;50.774;12.918;2023-08-21T00:03:11;21.00;1.00
7014;DHT22;3547;50.774;12.918;2023-08-21T00:05:37;21.00;1.00
7014;DHT22;3547;50.774;12.918;2023-08-21T00:08:04;21.00;1.00
7014;DHT22;3547;50.774;12.918;2023-08-21T00:10:33;21.00;1.00
7014;DHT22;3547;50.774;12.918;2023-08-21T00:13:03;21.00;1.00
7014;DHT22;3547;50.774;12.918;2023-08-21T00:15:29;21.00;1.00
7014;DHT22;3547;50.774;12.918;2023-08-21T00:17:55;21.00;1.00
7014;DHT22;3547;50.774;12.918;2023-08-21T00:20:23;20.90;1.00
7014;DHT22;3547;50.774;12.918;2023-08-21T00:22:49;20.90;1.00
7014;DHT22;3547;50.774;12.918;2023-08-21T00:25:15;20.90;1.00
7014;DHT22;3547;50.774;12.918;2023-08-21T00:27:41;20.80;1.00
7014;DHT22;3547;50.774;12.918;2023-08-21T00:30:08;20.80;1.00
7014;DHT22;3547;50.774;12.918;2023-08-21T00:32:34;20.90;1.00
7014;DHT22;3547;50.774;12.918;2023-08-21T00:35:01;20.90;1.00
7014;DHT22;3547;50.774;12.918;2023-08-21T00:37:27;20.80;1.00
7014;DHT22;3547;50.774;12.918;2023-08-21T00:39:53;20.80;1.00
7014;DHT22;3547;50.774;12.918;2023-08-21T00:42:19;20.80;1.00
7014;DHT22;3547;50.774;12.918;2023-08-21T00:44:45;20.80;1.00
7014;DHT22;3547;50.774;12.918;2023-08-21T00:47:11;20.70;1.00
7014;DHT22;3547;50.774;12.918;2023-08-21T00:49:38;20.70;1.00
7014;DHT22;3547;50.774;12.918;2023-08-21T00:52:08;20.60;1.00
7014;DHT22;3547;50.774;12.918;2023-08-21T00:54:45;20.60;1.00
7014;DHT22;3547;50.774;12.918;2023-08-21T00:57:11;20.50;1.00
7014;DHT22;3547;50.774;12.918;2023-08-21T00:59:38;20.50;1.00
7014;DHT22;3547;50.774;12.918;2023-08-21T01:02:04;20.40;1.00
7014;DHT22;3547;50.774;12.918;2023-08-21T01:04:31;20.40;1.00
7014;DHT22;3547;50.774;12.918;2023-08-21T01:06:57;20.40;1.00
7014;DHT22;3547;50.774;12.918;2023-08-21T01:09:33;20.30;1.00
7014;DHT22;3547;50.774;12.918;2023-08-21T01:15:03;20.40;1.00
7014;DHT22;3547;50.774;12.918;2023-08-21T01:17:36;20.40;1.00
7014;DHT22;3547;50.774;12.918;2023-08-21T01:20:04;20.30;1.00
7014;DHT22;3547;50.774;12.918;2023-08-21T01:22:36;20.30;1.00
7014;DHT22;3547;50.774;12.918;2023-08-21T01:25:04;20.20;1.00
7014;DHT22;3547;50.774;12.918;2023-08-21T01:27:32;20.30;1.00
7014;DHT22;3547;50.774;12.918;2023-08-21T01:30:00;20.30;1.00
7014;DHT22;3547;50.774;12.918;2023-08-21T01:35:17;20.30;1.00
7014;DHT22;3547;50.774;12.918;2023-08-21T01:37:44;20.20;1.00
7014;DHT22;3547;50.774;12.918;2023-08-21T01:40:10;20.20;1.00
7014;DHT22;3547;50.774;12.918;2023-08-21T01:42:36;20.20;1.00
7014;DHT22;3547;50.774;12.918;2023-08-21T01:45:03;20.20;1.00
7014;DHT22;3547;50.774;12.918;2023-08-21T01:47:29;20.20;1.00
7014;DHT22;3547;50.774;12.918;2023-08-21T01:49:55;20.20;1.00
7014;DHT22;3547;50.774;12.918;2023-08-21T01:52:21;20.20;1.00
7014;DHT22;3547;50.774;12.918;2023-08-21T01:54:50;20.10;1.00
7014;DHT22;3547;50.774;12.918;2023-08-21T01:57:16;20.00;1.00
7014;DHT22;3547;50.774;12.918;2023-08-21T01:59:42;20.00;1.00
7014;DHT22;3547;50.774;12.918;2023-08-21T02:02:09;19.90;1.00
7014;DHT22;3547;50.774;12.918;2023-08-21T02:04:35;19.90;1.00
7014;DHT22;3547;50.774;12.918;2023-08-21T02:07:01;19.90;1.00
7014;DHT22;3547;50.774;12.918;2023-08-21T02:09:27;19.80;1.00
7014;DHT22;3547;50.774;12.918;2023-08-21T02:11:53;19.80;1.00
7014;DHT22;3547;50.774;12.918;2023-08-21T02:14:19;19.80;1.00
7014;DHT22;3547;50.774;12.918;2023-08-21T02:16:45;19.80;1.00
7014;DHT22;3547;50.774;12.918;2023-08-21T02:19:12;19.80;1.00
7014;DHT22;3547;50.774;12.918;2023-08-21T02:21:38;19.80;1.00
7014;DHT22;3547;50.774;12.918;2023-08-21T02:24:04;19.80;1.00
7014;DHT22;3547;50.774;12.918;2023-08-21T02:26:30;19.70;1.00
7014;DHT22;3547;50.774;12.918;2023-08-21T02:28:56;19.70;1.00
7014;DHT22;3547;50.774;12.918;2023-08-21T02:31:23;19.70;1.00
7014;DHT22;3547;50.774;12.918;2023-08-21T02:33:52;19.70;1.00
7014;DHT22;3547;50.774;12.918;2023-08-21T02:36:22;19.80;1.00
7014;DHT22;3547;50.774;12.918;2023-08-21T02:38:49;19.80;1.00
7014;DHT22;3547;50.774;12.918;2023-08-21T02:41:15;19.80;1.00
7014;DHT22;3547;50.774;12.918;2023-08-21T02:43:43;19.80;1.00
7014;DHT22;3547;50.774;12.918;2023-08-21T02:46:09;19.80;1.00
7014;DHT22;3547;50.774;12.918;2023-08-21T02:48:35;19.70;1.00
7014;DHT22;3547;50.774;12.918;2023-08-21T02:51:02;19.70;1.00
7014;DHT22;3547;50.774;12.918;2023-08-21T02:53:28;19.60;1.00
7014;DHT22;3547;50.774;12.918;2023-08-21T02:55:55;19.60;1.00
7014;DHT22;3547;50.774;12.918;2023-08-21T02:58:21;19.60;1.00
7014;DHT22;3547;50.774;12.918;2023-08-21T03:00:48;19.60;1.00
7014;DHT22;3547;50.774;12.918;2023-08-21T03:03:14;19.50;1.00
7014;DHT22;3547;50.774;12.918;2023-08-21T03:05:40;19.50;1.00
7014;DHT22;3547;50.774;12.918;2023-08-21T03:08:06;19.40;1.00
7014;DHT22;3547;50.774;12.918;2023-08-21T03:10:33;19.40;1.00
7014;DHT22;3547;50.774;12.918;2023-08-21T03:13:03;19.30;1.00
7014;DHT22;3547;50.774;12.918;2023-08-21T03:15:32;19.30;1.00
7014;DHT22;3547;50.774;12.918;2023-08-21T03:21:20;19.30;1.00
7014;DHT22;3547;50.774;12.918;2023-08-21T03:23:51;19.30;1.00
7014;DHT22;3547;50.774;12.918;2023-08-21T03:26:17;19.40;1.00
7014;DHT22;3547;50.774;12.918;2023-08-21T03:28:43;19.30;1.00
7014;DHT22;3547;50.774;12.918;2023-08-21T03:31:10;19.30;1.00
7014;DHT22;3547;50.774;12.918;2023-08-21T03:33:36;19.20;1.00
7014;DHT22;3547;50.774;12.918;2023-08-21T03:36:02;19.20;1.00
7014;DHT22;3547;50.774;12.918;2023-08-21T03:38:28;19.30;1.00
7014;DHT22;3547;50.774;12.918;2023-08-21T03:40:55;19.20;1.00
7014;DHT22;3547;50.774;12.918;2023-08-21T03:43:21;19.20;1.00
7014;DHT22;3547;50.774;12.918;2023-08-21T03:45:51;19.20;1.00
7014;DHT22;3547;50.774;12.918;2023-08-21T03:48:17;19.10;1.00
7014;DHT22;3547;50.774;12.918;2023-08-21T03:50:55;19.10;1.00
7014;DHT22;3547;50.774;12.918;2023-08-21T03:53:31;19.00;1.00
7014;DHT22;3547;50.774;12.918;2023-08-21T03:56:05;19.00;1.00
7014;DHT22;3547;50.774;12.918;2023-08-21T03:58:32;19.00;1.00
7014;DHT22;3547;50.774;12.918;2023-08-21T04:00:58;19.00;1.00
7014;DHT22;3547;50.774;12.918;2023-08-21T04:03:24;19.00;1.00
7014;DHT22;3547;50.774;12.918;2023-08-21T04:05:54;18.90;1.00
7014;DHT22;3547;50.774;12.918;2023-08-21T04:08:20;18.90;1.00
7014;DHT22;3547;50.774;12.918;2023-08-21T04:10:46;18.90;1.00
7014;DHT22;3547;50.774;12.918;2023-08-21T04:13:12;18.90;1.00
7014;DHT22;3547;50.774;12.918;2023-08-21T04:15:39;18.90;1.00
7014;DHT22;3547;50.774;12.918;2023-08-21T04:18:13;18.80;1.00
7014;DHT22;3547;50.774;12.918;2023-08-21T04:20:39;18.80;1.00
7014;DHT22;3547;50.774;12.918;2023-08-21T04:23:05;18.80;1.00
7014;DHT22;3547;50.774;12.918;2023-08-21T04:25:31;18.80;1.00
7014;DHT22;3547;50.774;12.918;2023-08-21T04:27:57;18.80;1.00
7014;DHT22;3547;50.774;12.918;2023-08-21T04:30:23;18.70;1.00
7014;DHT22;3547;50.774;12.918;2023-08-21T04:32:50;18.80;1.00
7014;DHT22;3547;50.774;12.918;2023-08-21T04:35:16;18.80;1.00
7014;DHT22;3547;50.774;12.918;2023-08-21T04:37:47;18.80;1.00
7014;DHT22;3547;50.774;12.918;2023-08-21T04:40:13;18.80;1.00
7014;DHT22;3547;50.774;12.918;2023-08-21T04:42:40;18.80;1.00
7014;DHT22;3547;50.774;12.918;2023-08-21T04:45:07;18.70;1.00
7014;DHT22;3547;50.774;12.918;2023-08-21T04:47:33;18.80;1.00
7014;DHT22;3547;50.774;12.918;2023-08-21T04:49:59;18.80;1.00
7014;DHT22;3547;50.774;12.918;2023-08-21T04:52:25;18.80;1.00
7014;DHT22;3547;50.774;12.918;2023-08-21T04:54:52;18.80;1.00
7014;DHT22;3547;50.774;12.918;2023-08-21T04:57:18;18.80;1.00
7014;DHT22;3547;50.774;12.918;2023-08-21T04:59:44;18.80;1.00
7014;DHT22;3547;50.774;12.918;2023-08-21T05:02:14;18.80;1.00
7014;DHT22;3547;50.774;12.918;2023-08-21T05:04:40;18.90;1.00
7014;DHT22;3547;50.774;12.918;2023-08-21T05:07:06;18.90;1.00
7014;DHT22;3547;50.774;12.918;2023-08-21T05:09:33;18.90;1.00
7014;DHT22;3547;50.774;12.918;2023-08-21T05:11:59;19.00;1.00
7014;DHT22;3547;50.774;12.918;2023-08-21T05:14:25;19.00;1.00
7014;DHT22;3547;50.774;12.918;2023-08-21T05:16:51;19.00;1.00
7014;DHT22;3547;50.774;12.918;2023-08-21T05:19:18;19.10;1.00
7014;DHT22;3547;50.774;12.918;2023-08-21T05:21:45;19.20;1.00
7014;DHT22;3547;50.774;12.918;2023-08-21T05:24:11;19.20;1.00
7014;DHT22;3547;50.774;12.918;2023-08-21T05:26:38;19.20;1.00
7014;DHT22;3547;50.774;12.918;2023-08-21T05:29:04;19.30;1.00
7014;DHT22;3547;50.774;12.918;2023-08-21T05:31:30;19.30;1.00
7014;DHT22;3547;50.774;12.918;2023-08-21T05:33:57;19.40;1.00
7014;DHT22;3547;50.774;12.918;2023-08-21T05:36:23;19.40;1.00
7014;DHT22;3547;50.774;12.918;2023-08-21T05:38:50;19.40;1.00
7014;DHT22;3547;50.774;12.918;2023-08-21T05:41:17;19.60;1.00
7014;DHT22;3547;50.774;12.918;2023-08-21T05:43:43;19.70;1.00
7014;DHT22;3547;50.774;12.918;2023-08-21T05:46:11;19.80;1.00
7014;DHT22;3547;50.774;12.918;2023-08-21T05:48:37;19.90;1.00
7014;DHT22;3547;50.774;12.918;2023-08-21T05:51:04;20.00;1.00
7014;DHT22;3547;50.774;12.918;2023-08-21T05:53:31;20.20;1.00
7014;DHT22;3547;50.774;12.918;2023-08-21T05:55:57;20.40;1.00
7014;DHT22;3547;50.774;12.918;2023-08-21T05:58:23;20.50;1.00
7014;DHT22;3547;50.774;12.918;2023-08-21T06:00:52;20.60;1.00
7014;DHT22;3547;50.774;12.918;2023-08-21T06:03:18;20.70;1.00
7014;DHT22;3547;50.774;12.918;2023-08-21T06:05:44;20.80;1.00
7014;DHT22;3547;50.774;12.918;2023-08-21T06:08:12;20.90;1.00
7014;DHT22;3547;50.774;12.918;2023-08-21T06:10:39;21.00;1.00
7014;DHT22;3547;50.774;12.918;2023-08-21T06:13:05;21.10;1.00
7014;DHT22;3547;50.774;12.918;2023-08-21T06:15:31;21.30;1.00
7014;DHT22;3547;50.774;12.918;2023-08-21T06:17:58;21.40;1.00
7014;DHT22;3547;50.774;12.918;2023-08-21T06:20:25;21.50;1.00
7014;DHT22;3547;50.774;12.918;2023-08-21T06:22:51;21.60;1.00
7014;DHT22;3547;50.774;12.918;2023-08-21T06:25:17;21.70;1.00
7014;DHT22;3547;50.774;12.918;2023-08-21T06:27:45;21.80;1.00
7014;DHT22;3547;50.774;12.918;2023-08-21T06:30:11;21.80;1.00
7014;DHT22;3547;50.774;12.918;2023-08-21T06:32:38;21.90;1.00
7014;DHT22;3547;50.774;12.918;2023-08-21T06:35:04;22.00;1.00
7014;DHT22;3547;50.774;12.918;2023-08-21T06:37:30;22.00;1.00
7014;DHT22;3547;50.774;12.918;2023-08-21T06:39:57;22.10;1.00
7014;DHT22;3547;50.774;12.918;2023-08-21T06:42:23;22.20;1.00
7014;DHT22;3547;50.774;12.918;2023-08-21T06:44:49;22.20;1.00
7014;DHT22;3547;50.774;12.918;2023-08-21T06:47:15;22.30;1.00
7014;DHT22;3547;50.774;12.918;2023-08-21T06:49:44;22.40;1.00
7014;DHT22;3547;50.774;12.918;2023-08-21T06:52:10;22.50;1.00
7014;DHT22;3547;50.774;12.918;2023-08-21T06:54:36;22.40;1.00
7014;DHT22;3547;50.774;12.918;2023-08-21T06:57:03;22.50;1.00
7014;DHT22;3547;50.774;12.918;2023-08-21T06:59:29;22.50;1.00
7014;DHT22;3547;50.774;12.918;2023-08-21T07:02:05;22.60;1.00
7014;DHT22;3547;50.774;12.918;2023-08-21T07:04:34;22.60;1.00
7014;DHT22;3547;50.774;12.918;2023-08-21T07:07:01;22.70;1.00
7014;DHT22;3547;50.774;12.918;2023-08-21T07:09:27;22.70;1.00
7014;DHT22;3547;50.774;12.918;2023-08-21T07:11:53;22.80;1.00
7014;DHT22;3547;50.774;12.918;2023-08-21T07:14:19;22.90;1.00
7014;DHT22;3547;50.774;12.918;2023-08-21T07:16:48;23.00;1.00
7014;DHT22;3547;50.774;12.918;2023-08-21T07:19:14;23.00;1.00
7014;DHT22;3547;50.774;12.918;2023-08-21T07:21:41;23.10;1.00
7014;DHT22;3547;50.774;12.918;2023-08-21T07:24:08;23.10;1.00
7014;DHT22;3547;50.774;12.918;2023-08-21T07:26:34;23.20;1.00
7014;DHT22;3547;50.774;12.918;2023-08-21T07:29:00;23.30;1.00
7014;DHT22;3547;50.774;12.918;2023-08-21T07:31:26;23.40;1.00
7014;DHT22;3547;50.774;12.918;2023-08-21T07:33:52;23.50;1.00
7014;DHT22;3547;50.774;12.918;2023-08-21T07:36:19;23.50;1.00
7014;DHT22;3547;50.774;12.918;2023-08-21T07:38:45;23.60;1.00
7014;DHT22;3547;50.774;12.918;2023-08-21T07:41:12;23.60;1.00
7014;DHT22;3547;50.774;12.918;2023-08-21T07:43:50;23.70;1.00
7014;DHT22;3547;50.774;12.918;2023-08-21T07:46:17;23.80;1.00
7014;DHT22;3547;50.774;12.918;2023-08-21T07:48:45;23.90;1.00
7014;DHT22;3547;50.774;12.918;2023-08-21T07:51:11;23.90;1.00
7014;DHT22;3547;50.774;12.918;2023-08-21T07:53:43;24.00;1.00
7014;DHT22;3547;50.774;12.918;2023-08-21T07:56:10;24.00;1.00
7014;DHT22;3547;50.774;12.918;2023-08-21T07:58:36;24.00;1.00
7014;DHT22;3547;50.774;12.918;2023-08-21T08:01:02;24.00;1.00
7014;DHT22;3547;50.774;12.918;2023-08-21T08:03:30;24.10;1.00
7014;DHT22;3547;50.774;12.918;2023-08-21T08:05:59;24.20;1.00
7014;DHT22;3547;50.774;12.918;2023-08-21T08:08:25;24.10;1.00
7014;DHT22;3547;50.774;12.918;2023-08-21T08:10:52;24.10;1.00
7014;DHT22;3547;50.774;12.918;2023-08-21T08:13:19;24.20;1.00
7014;DHT22;3547;50.774;12.918;2023-08-21T08:15:45;24.30;1.00
7014;DHT22;3547;50.774;12.918;2023-08-21T08:18:15;24.40;1.00
7014;DHT22;3547;50.774;12.918;2023-08-21T08:20:43;24.30;1.00
7014;DHT22;3547;50.774;12.918;2023-08-21T08:23:09;24.30;1.00
7014;DHT22;3547;50.774;12.918;2023-08-21T08:25:36;24.30;1.00
7014;DHT22;3547;50.774;12.918;2023-08-21T08:28:02;24.40;1.00
7014;DHT22;3547;50.774;12.918;2023-08-21T08:30:28;24.40;1.00
7014;DHT22;3547;50.774;12.918;2023-08-21T08:32:55;24.50;1.00
7014;DHT22;3547;50.774;12.918;2023-08-21T08:35:21;24.50;1.00
7014;DHT22;3547;50.774;12.918;2023-08-21T08:37:47;24.50;1.00
7014;DHT22;3547;50.774;12.918;2023-08-21T08:40:19;24.60;1.00
7014;DHT22;3547;50.774;12.918;2023-08-21T08:42:45;24.50;1.00
7014;DHT22;3547;50.774;12.918;2023-08-21T08:45:13;24.50;1.00
7014;DHT22;3547;50.774;12.918;2023-08-21T08:47:41;24.50;1.00
7014;DHT22;3547;50.774;12.918;2023-08-21T08:50:09;24.60;1.00
7014;DHT22;3547;50.774;12.918;2023-08-21T08:52:39;24.60;1.00
7014;DHT22;3547;50.774;12.918;2023-08-21T08:55:06;24.70;1.00
7014;DHT22;3547;50.774;12.918;2023-08-21T08:57:33;24.80;1.00
7014;DHT22;3547;50.774;12.918;2023-08-21T09:00:01;24.80;1.00
7014;DHT22;3547;50.774;12.918;2023-08-21T09:02:30;24.80;1.00
7014;DHT22;3547;50.774;12.918;2023-08-21T09:04:56;24.90;1.00
7014;DHT22;3547;50.774;12.918;2023-08-21T09:07:22;24.90;1.00
7014;DHT22;3547;50.774;12.918;2023-08-21T09:09:49;25.00;1.00
7014;DHT22;3547;50.774;12.918;2023-08-21T09:12:16;25.20;1.00
7014;DHT22;3547;50.774;12.918;2023-08-21T09:14:44;25.10;1.00
7014;DHT22;3547;50.774;12.918;2023-08-21T09:17:11;25.30;1.00
7014;DHT22;3547;50.774;12.918;2023-08-21T09:19:38;25.30;1.00
7014;DHT22;3547;50.774;12.918;2023-08-21T09:22:12;25.30;1.00
7014;DHT22;3547;50.774;12.918;2023-08-21T09:24:39;25.10;1.00
7014;DHT22;3547;50.774;12.918;2023-08-21T09:27:16;25.10;1.00
7014;DHT22;3547;50.774;12.918;2023-08-21T09:29:43;25.20;1.00
7014;DHT22;3547;50.774;12.918;2023-08-21T09:32:12;25.30;1.00
7014;DHT22;3547;50.774;12.918;2023-08-21T09:34:38;25.40;1.00
7014;DHT22;3547;50.774;12.918;2023-08-21T09:37:08;25.50;1.00
7014;DHT22;3547;50.774;12.918;2023-08-21T09:39:36;25.60;1.00
7014;DHT22;3547;50.774;12.918;2023-08-21T09:42:06;25.80;1.00
7014;DHT22;3547;50.774;12.918;2023-08-21T09:44:40;25.90;1.00
7014;DHT22;3547;50.774;12.918;2023-08-21T09:47:12;26.10;1.00
7014;DHT22;3547;50.774;12.918;2023-08-21T09:49:39;26.20;1.00
7014;DHT22;3547;50.774;12.918;2023-08-21T09:52:06;26.00;1.00
7014;DHT22;3547;50.774;12.918;2023-08-21T09:54:33;25.80;1.00
7014;DHT22;3547;50.774;12.918;2023-08-21T09:57:03;26.00;1.00
7014;DHT22;3547;50.774;12.918;2023-08-21T09:59:33;26.10;1.00
7014;DHT22;3547;50.774;12.918;2023-08-21T10:02:00;25.80;1.00
7014;DHT22;3547;50.774;12.918;2023-08-21T10:04:32;26.10;1.00
7014;DHT22;3547;50.774;12.918;2023-08-21T10:07:06;26.30;1.00
7014;DHT22;3547;50.774;12.918;2023-08-21T10:09:33;26.40;1.00
7014;DHT22;3547;50.774;12.918;2023-08-21T10:12:03;26.40;1.00
7014;DHT22;3547;50.774;12.918;2023-08-21T10:14:30;26.20;1.00
7014;DHT22;3547;50.774;12.918;2023-08-21T10:16:57;26.00;1.00
7014;DHT22;3547;50.774;12.918;2023-08-21T10:19:23;26.10;1.00
7014;DHT22;3547;50.774;12.918;2023-08-21T10:21:49;26.30;1.00
7014;DHT22;3547;50.774;12.918;2023-08-21T10:24:33;26.50;1.00
7014;DHT22;3547;50.774;12.918;2023-08-21T10:27:00;26.80;1.00
7014;DHT22;3547;50.774;12.918;2023-08-21T10:29:26;26.90;1.00
7014;DHT22;3547;50.774;12.918;2023-08-21T10:32:03;27.20;1.00
7014;DHT22;3547;50.774;12.918;2023-08-21T10:34:37;27.40;1.00
7014;DHT22;3547;50.774;12.918;2023-08-21T10:37:07;27.20;1.00
7014;DHT22;3547;50.774;12.918;2023-08-21T10:39:36;27.30;1.00
7014;DHT22;3547;50.774;12.918;2023-08-21T10:42:06;27.50;1.00
7014;DHT22;3547;50.774;12.918;2023-08-21T10:47:23;27.90;1.00
7014;DHT22;3547;50.774;12.918;2023-08-21T10:49:58;28.10;1.00
7014;DHT22;3547;50.774;12.918;2023-08-21T10:54:58;28.00;1.00
7014;DHT22;3547;50.774;12.918;2023-08-21T10:57:26;27.60;1.00
7014;DHT22;3547;50.774;12.918;2023-08-21T11:02:30;26.70;1.00
7014;DHT22;3547;50.774;12.918;2023-08-21T11:04:58;27.10;1.00
7014;DHT22;3547;50.774;12.918;2023-08-21T11:07:26;27.50;1.00
7014;DHT22;3547;50.774;12.918;2023-08-21T11:09:52;27.80;1.00
7014;DHT22;3547;50.774;12.918;2023-08-21T11:12:20;28.00;1.00
7014;DHT22;3547;50.774;12.918;2023-08-21T11:14:47;28.00;1.00
7014;DHT22;3547;50.774;12.918;2023-08-21T11:17:14;28.30;1.00
7014;DHT22;3547;50.774;12.918;2023-08-21T11:19:41;28.70;1.00
7014;DHT22;3547;50.774;12.918;2023-08-21T11:22:08;29.00;1.00
7014;DHT22;3547;50.774;12.918;2023-08-21T11:27:08;29.60;1.00
7014;DHT22;3547;50.774;12.918;2023-08-21T11:29:45;29.50;1.00
7014;DHT22;3547;50.774;12.918;2023-08-21T11:32:15;29.10;1.00
7014;DHT22;3547;50.774;12.918;2023-08-21T11:34:49;28.30;1.00
7014;DHT22;3547;50.774;12.918;2023-08-21T11:37:20;28.30;1.00
7014;DHT22;3547;50.774;12.918;2023-08-21T11:39:52;28.60;1.00
7014;DHT22;3547;50.774;12.918;2023-08-21T11:42:20;28.10;1.00
7014;DHT22;3547;50.774;12.918;2023-08-21T11:44:52;27.70;1.00
7014;DHT22;3547;50.774;12.918;2023-08-21T11:47:20;27.60;1.00
7014;DHT22;3547;50.774;12.918;2023-08-21T11:49:47;27.90;1.00
7014;DHT22;3547;50.774;12.918;2023-08-21T11:52:22;28.80;1.00
7014;DHT22;3547;50.774;12.918;2023-08-21T11:54:51;29.40;1.00
7014;DHT22;3547;50.774;12.918;2023-08-21T11:57:18;29.60;1.00
7014;DHT22;3547;50.774;12.918;2023-08-21T11:59:53;29.70;1.00
7014;DHT22;3547;50.774;12.918;2023-08-21T12:02:27;29.70;1.00
7014;DHT22;3547;50.774;12.918;2023-08-21T12:05:13;29.80;1.00
7014;DHT22;3547;50.774;12.918;2023-08-21T12:07:39;30.00;1.00
7014;DHT22;3547;50.774;12.918;2023-08-21T12:10:06;29.60;1.00
7014;DHT22;3547;50.774;12.918;2023-08-21T12:12:32;28.80;1.00
7014;DHT22;3547;50.774;12.918;2023-08-21T12:14:59;28.60;1.00
7014;DHT22;3547;50.774;12.918;2023-08-21T12:17:25;28.20;1.00
7014;DHT22;3547;50.774;12.918;2023-08-21T12:19:54;28.20;1.00
7014;DHT22;3547;50.774;12.918;2023-08-21T12:22:21;28.80;1.00
7014;DHT22;3547;50.774;12.918;2023-08-21T12:24:47;28.80;1.00
7014;DHT22;3547;50.774;12.918;2023-08-21T12:27:14;28.90;1.00
7014;DHT22;3547;50.774;12.918;2023-08-21T12:29:44;29.10;1.00
7014;DHT22;3547;50.774;12.918;2023-08-21T12:32:10;29.40;1.00
7014;DHT22;3547;50.774;12.918;2023-08-21T12:34:36;30.10;1.00
7014;DHT22;3547;50.774;12.918;2023-08-21T12:37:02;30.80;1.00
7014;DHT22;3547;50.774;12.918;2023-08-21T12:39:29;31.20;1.00
7014;DHT22;3547;50.774;12.918;2023-08-21T12:41:55;31.20;1.00
7014;DHT22;3547;50.774;12.918;2023-08-21T12:44:21;31.10;1.00
7014;DHT22;3547;50.774;12.918;2023-08-21T12:46:48;30.30;1.00
7014;DHT22;3547;50.774;12.918;2023-08-21T12:49:14;30.30;1.00
7014;DHT22;3547;50.774;12.918;2023-08-21T12:51:43;30.60;1.00
7014;DHT22;3547;50.774;12.918;2023-08-21T12:54:09;30.20;1.00
7014;DHT22;3547;50.774;12.918;2023-08-21T12:56:35;29.70;1.00
7014;DHT22;3547;50.774;12.918;2023-08-21T12:59:01;29.40;1.00
7014;DHT22;3547;50.774;12.918;2023-08-21T13:01:29;29.00;1.00
7014;DHT22;3547;50.774;12.918;2023-08-21T13:03:55;29.10;1.00
7014;DHT22;3547;50.774;12.918;2023-08-21T13:06:21;29.20;1.00
7014;DHT22;3547;50.774;12.918;2023-08-21T13:08:47;29.00;1.00
7014;DHT22;3547;50.774;12.918;2023-08-21T13:11:15;28.90;1.00
7014;DHT22;3547;50.774;12.918;2023-08-21T13:13:42;29.00;1.00
7014;DHT22;3547;50.774;12.918;2023-08-21T13:16:08;28.90;1.00
7014;DHT22;3547;50.774;12.918;2023-08-21T13:18:34;28.80;1.00
7014;DHT22;3547;50.774;12.918;2023-08-21T13:21:00;28.90;1.00
7014;DHT22;3547;50.774;12.918;2023-08-21T13:23:29;28.80;1.00
7014;DHT22;3547;50.774;12.918;2023-08-21T13:25:56;28.70;1.00
7014;DHT22;3547;50.774;12.918;2023-08-21T13:31:46;28.70;1.00
7014;DHT22;3547;50.774;12.918;2023-08-21T13:34:12;28.70;1.00
7014;DHT22;3547;50.774;12.918;2023-08-21T13:36:39;28.80;1.00
7014;DHT22;3547;50.774;12.918;2023-08-21T13:39:06;28.80;1.00
7014;DHT22;3547;50.774;12.918;2023-08-21T13:41:36;28.80;1.00
7014;DHT22;3547;50.774;12.918;2023-08-21T13:44:05;28.70;1.00
7014;DHT22;3547;50.774;12.918;2023-08-21T13:46:35;28.50;1.00
7014;DHT22;3547;50.774;12.918;2023-08-21T13:49:04;28.70;1.00
7014;DHT22;3547;50.774;12.918;2023-08-21T13:51:36;28.80;1.00
7014;DHT22;3547;50.774;12.918;2023-08-21T13:54:03;29.10;1.00
7014;DHT22;3547;50.774;12.918;2023-08-21T13:56:29;29.00;1.00
7014;DHT22;3547;50.774;12.918;2023-08-21T13:58:55;29.30;1.00
7014;DHT22;3547;50.774;12.918;2023-08-21T14:01:22;29.80;1.00
7014;DHT22;3547;50.774;12.918;2023-08-21T14:03:48;29.90;1.00
7014;DHT22;3547;50.774;12.918;2023-08-21T14:06:14;30.50;1.00
7014;DHT22;3547;50.774;12.918;2023-08-21T14:08:40;31.20;1.00
7014;DHT22;3547;50.774;12.918;2023-08-21T14:11:07;31.70;1.00
7014;DHT22;3547;50.774;12.918;2023-08-21T14:13:33;31.90;1.00
7014;DHT22;3547;50.774;12.918;2023-08-21T14:15:59;32.00;1.00
7014;DHT22;3547;50.774;12.918;2023-08-21T14:18:26;32.10;1.00
7014;DHT22;3547;50.774;12.918;2023-08-21T14:20:52;31.80;1.00
7014;DHT22;3547;50.774;12.918;2023-08-21T14:23:19;31.70;1.00
7014;DHT22;3547;50.774;12.918;2023-08-21T14:25:45;31.90;1.00
7014;DHT22;3547;50.774;12.918;2023-08-21T14:28:11;31.70;1.00
7014;DHT22;3547;50.774;12.918;2023-08-21T14:30:38;31.50;1.00
7014;DHT22;3547;50.774;12.918;2023-08-21T14:33:05;32.30;1.00
7014;DHT22;3547;50.774;12.918;2023-08-21T14:35:31;32.40;1.00
7014;DHT22;3547;50.774;12.918;2023-08-21T14:37:57;31.70;1.00
7014;DHT22;3547;50.774;12.918;2023-08-21T14:40:24;31.30;1.00
7014;DHT22;3547;50.774;12.918;2023-08-21T14:42:50;30.70;1.00
7014;DHT22;3547;50.774;12.918;2023-08-21T14:45:16;29.90;1.00
7014;DHT22;3547;50.774;12.918;2023-08-21T14:47:43;29.60;1.00
7014;DHT22;3547;50.774;12.918;2023-08-21T14:50:12;29.50;1.00
7014;DHT22;3547;50.774;12.918;2023-08-21T14:52:38;29.40;1.00
7014;DHT22;3547;50.774;12.918;2023-08-21T14:55:05;29.20;1.00
7014;DHT22;3547;50.774;12.918;2023-08-21T14:57:31;29.00;1.00
7014;DHT22;3547;50.774;12.918;2023-08-21T14:59:57;29.00;1.00
7014;DHT22;3547;50.774;12.918;2023-08-21T15:02:24;29.50;1.00
7014;DHT22;3547;50.774;12.918;2023-08-21T15:04:50;29.70;1.00
7014;DHT22;3547;50.774;12.918;2023-08-21T15:07:21;29.70;1.00
7014;DHT22;3547;50.774;12.918;2023-08-21T15:09:48;29.50;1.00
7014;DHT22;3547;50.774;12.918;2023-08-21T15:12:18;29.50;1.00
7014;DHT22;3547;50.774;12.918;2023-08-21T15:14:45;29.60;1.00
7014;DHT22;3547;50.774;12.918;2023-08-21T15:17:20;29.60;1.00
7014;DHT22;3547;50.774;12.918;2023-08-21T15:19:53;29.70;1.00
7014;DHT22;3547;50.774;12.918;2023-08-21T15:22:20;29.50;1.00
7014;DHT22;3547;50.774;12.918;2023-08-21T15:24:50;29.10;1.00
7014;DHT22;3547;50.774;12.918;2023-08-21T15:27:22;29.10;1.00
7014;DHT22;3547;50.774;12.918;2023-08-21T15:29:49;29.10;1.00
7014;DHT22;3547;50.774;12.918;2023-08-21T15:32:15;29.10;1.00
7014;DHT22;3547;50.774;12.918;2023-08-21T15:34:41;29.50;1.00
7014;DHT22;3547;50.774;12.918;2023-08-21T15:37:08;29.60;1.00
7014;DHT22;3547;50.774;12.918;2023-08-21T15:39:41;29.40;1.00
7014;DHT22;3547;50.774;12.918;2023-08-21T15:42:13;29.30;1.00
7014;DHT22;3547;50.774;12.918;2023-08-21T15:44:42;29.20;1.00
7014;DHT22;3547;50.774;12.918;2023-08-21T15:47:12;29.10;1.00
7014;DHT22;3547;50.774;12.918;2023-08-21T15:49:39;29.10;1.00
7014;DHT22;3547;50.774;12.918;2023-08-21T15:52:08;29.30;1.00
7014;DHT22;3547;50.774;12.918;2023-08-21T15:54:38;29.40;1.00
7014;DHT22;3547;50.774;12.918;2023-08-21T15:57:12;30.60;1.00
7014;DHT22;3547;50.774;12.918;2023-08-21T15:59:39;31.00;1.00
7014;DHT22;3547;50.774;12.918;2023-08-21T16:02:09;32.00;1.00
7014;DHT22;3547;50.774;12.918;2023-08-21T16:04:37;32.10;1.00
7014;DHT22;3547;50.774;12.918;2023-08-21T16:07:03;32.40;1.00
7014;DHT22;3547;50.774;12.918;2023-08-21T16:09:30;33.40;1.00
7014;DHT22;3547;50.774;12.918;2023-08-21T16:11:56;33.50;1.00
7014;DHT22;3547;50.774;12.918;2023-08-21T16:14:22;33.40;1.00
7014;DHT22;3547;50.774;12.918;2023-08-21T16:16:48;33.90;1.00
7014;DHT22;3547;50.774;12.918;2023-08-21T16:19:16;35.30;1.00
7014;DHT22;3547;50.774;12.918;2023-08-21T16:21:42;35.50;1.00
7014;DHT22;3547;50.774;12.918;2023-08-21T16:24:09;34.80;1.00
7014;DHT22;3547;50.774;12.918;2023-08-21T16:26:35;34.50;1.00